KOLV/OLV METAR and TAF weather

Enter ICAO airport designator
Station Type Date Time Source
KOLV METAR 2020/11/27 12:50 UTC NOAA

KOLV 271250Z 00000KT 10SM SCT060 BKN250 07/06 A3008


Station Type Date Time Source
KOLV Decoded METAR 2020/11/27 12:50 UTC NOAA

Olive Branch, Olive Branch Airport, MS, United States (KOLV) 34-58-44N 089-47-13W
Nov 27, 2020 - 07:50 AM EST / 2020.11.27 1250 UTC
Wind: Calm:0
Visibility: 10 mile(s):0
Sky conditions: mostly cloudy
Temperature: 44 F (7 C)
Dew Point: 42 F (6 C)
Relative Humidity: 93%
Pressure (altimeter): 30.08 in. Hg (1018 hPa)
ob: KOLV 271250Z 00000KT 10SM SCT060 BKN250 07/06 A3008
cycle: 13

Station Type Date Time Source
KOLV TAF UTC NOAA

Error!

Example: see airport list